sensor_id;sensor_type;location;lat;lon;timestamp;P1;durP1;ratioP1;P2;durP2;ratioP2
18334;SDS011;9293;49.524;10.964;2022-09-09T00:01:14;4.07;;;1.67;;
18334;SDS011;9293;49.524;10.964;2022-09-09T00:04:12;5.03;;;2.00;;
18334;SDS011;9293;49.524;10.964;2022-09-09T00:10:00;3.50;;;1.85;;
18334;SDS011;9293;49.524;10.964;2022-09-09T00:15:13;12.25;;;2.33;;
18334;SDS011;9293;49.524;10.964;2022-09-09T00:18:18;4.70;;;1.80;;
18334;SDS011;9293;49.524;10.964;2022-09-09T00:21:02;6.25;;;2.03;;
18334;SDS011;9293;49.524;10.964;2022-09-09T00:23:38;3.40;;;1.70;;
18334;SDS011;9293;49.524;10.964;2022-09-09T00:26:19;4.60;;;1.40;;
18334;SDS011;9293;49.524;10.964;2022-09-09T00:29:26;4.35;;;1.80;;
18334;SDS011;9293;49.524;10.964;2022-09-09T00:32:18;4.88;;;1.42;;
18334;SDS011;9293;49.524;10.964;2022-09-09T00:35:04;5.57;;;1.63;;
18334;SDS011;9293;49.524;10.964;2022-09-09T00:37:46;4.07;;;1.77;;
18334;SDS011;9293;49.524;10.964;2022-09-09T00:40:27;3.15;;;1.60;;
18334;SDS011;9293;49.524;10.964;2022-09-09T00:46:01;4.80;;;1.80;;
18334;SDS011;9293;49.524;10.964;2022-09-09T00:54:28;5.57;;;2.22;;
18334;SDS011;9293;49.524;10.964;2022-09-09T01:08:01;4.10;;;1.95;;
18334;SDS011;9293;49.524;10.964;2022-09-09T01:10:50;6.28;;;2.05;;
18334;SDS011;9293;49.524;10.964;2022-09-09T01:13:30;5.10;;;2.13;;
18334;SDS011;9293;49.524;10.964;2022-09-09T01:16:07;7.55;;;2.03;;
18334;SDS011;9293;49.524;10.964;2022-09-09T01:18:40;4.82;;;1.88;;
18334;SDS011;9293;49.524;10.964;2022-09-09T01:21:27;5.88;;;1.88;;
18334;SDS011;9293;49.524;10.964;2022-09-09T01:24:39;4.47;;;2.08;;
18334;SDS011;9293;49.524;10.964;2022-09-09T01:27:56;3.20;;;2.05;;
18334;SDS011;9293;49.524;10.964;2022-09-09T01:30:27;4.75;;;1.75;;
18334;SDS011;9293;49.524;10.964;2022-09-09T01:32:57;4.03;;;2.08;;
18334;SDS011;9293;49.524;10.964;2022-09-09T01:38:09;3.65;;;1.70;;
18334;SDS011;9293;49.524;10.964;2022-09-09T01:40:37;3.97;;;2.00;;
18334;SDS011;9293;49.524;10.964;2022-09-09T01:43:06;4.15;;;1.70;;
18334;SDS011;9293;49.524;10.964;2022-09-09T01:45:36;5.03;;;2.33;;
18334;SDS011;9293;49.524;10.964;2022-09-09T01:48:06;6.13;;;2.00;;
18334;SDS011;9293;49.524;10.964;2022-09-09T01:50:44;4.72;;;1.70;;
18334;SDS011;9293;49.524;10.964;2022-09-09T01:53:12;3.80;;;1.95;;
18334;SDS011;9293;49.524;10.964;2022-09-09T01:55:54;3.40;;;2.03;;
18334;SDS011;9293;49.524;10.964;2022-09-09T01:58:37;6.50;;;2.00;;
18334;SDS011;9293;49.524;10.964;2022-09-09T02:04:35;5.38;;;2.00;;
18334;SDS011;9293;49.524;10.964;2022-09-09T02:07:14;2.80;;;1.80;;
18334;SDS011;9293;49.524;10.964;2022-09-09T02:10:08;4.72;;;2.10;;
18334;SDS011;9293;49.524;10.964;2022-09-09T02:12:56;3.90;;;1.80;;
18334;SDS011;9293;49.524;10.964;2022-09-09T02:15:32;4.78;;;1.77;;
18334;SDS011;9293;49.524;10.964;2022-09-09T02:18:04;2.67;;;1.73;;
18334;SDS011;9293;49.524;10.964;2022-09-09T02:20:36;4.22;;;1.90;;
18334;SDS011;9293;49.524;10.964;2022-09-09T02:23:05;3.95;;;1.80;;
18334;SDS011;9293;49.524;10.964;2022-09-09T02:25:37;3.38;;;1.88;;
18334;SDS011;9293;49.524;10.964;2022-09-09T02:28:18;3.20;;;1.80;;
18334;SDS011;9293;49.524;10.964;2022-09-09T02:30:51;4.28;;;1.83;;
18334;SDS011;9293;49.524;10.964;2022-09-09T02:33:30;5.10;;;1.90;;
18334;SDS011;9293;49.524;10.964;2022-09-09T02:36:05;3.67;;;1.73;;
18334;SDS011;9293;49.524;10.964;2022-09-09T02:38:40;4.47;;;1.92;;
18334;SDS011;9293;49.524;10.964;2022-09-09T02:41:14;2.97;;;1.92;;
18334;SDS011;9293;49.524;10.964;2022-09-09T02:43:42;2.70;;;1.95;;
18334;SDS011;9293;49.524;10.964;2022-09-09T02:46:21;3.37;;;1.70;;
18334;SDS011;9293;49.524;10.964;2022-09-09T02:49:02;3.30;;;1.73;;
18334;SDS011;9293;49.524;10.964;2022-09-09T02:51:45;2.72;;;1.77;;
18334;SDS011;9293;49.524;10.964;2022-09-09T02:59:36;4.43;;;1.85;;
18334;SDS011;9293;49.524;10.964;2022-09-09T03:02:05;5.90;;;1.75;;
18334;SDS011;9293;49.524;10.964;2022-09-09T03:04:34;3.55;;;1.60;;
18334;SDS011;9293;49.524;10.964;2022-09-09T03:07:03;3.30;;;1.25;;
18334;SDS011;9293;49.524;10.964;2022-09-09T03:09:31;3.35;;;1.50;;
18334;SDS011;9293;49.524;10.964;2022-09-09T03:12:02;2.20;;;1.45;;
18334;SDS011;9293;49.524;10.964;2022-09-09T03:14:33;3.40;;;1.70;;
18334;SDS011;9293;49.524;10.964;2022-09-09T03:17:00;2.47;;;1.50;;
18334;SDS011;9293;49.524;10.964;2022-09-09T03:19:34;5.90;;;1.70;;
18334;SDS011;9293;49.524;10.964;2022-09-09T03:22:07;3.97;;;1.70;;
18334;SDS011;9293;49.524;10.964;2022-09-09T03:24:42;1.75;;;1.45;;
18334;SDS011;9293;49.524;10.964;2022-09-09T03:27:10;3.33;;;1.75;;
18334;SDS011;9293;49.524;10.964;2022-09-09T03:29:38;4.72;;;1.90;;
18334;SDS011;9293;49.524;10.964;2022-09-09T03:32:11;5.25;;;1.88;;
18334;SDS011;9293;49.524;10.964;2022-09-09T03:34:39;3.45;;;1.90;;
18334;SDS011;9293;49.524;10.964;2022-09-09T03:37:10;2.95;;;1.77;;
18334;SDS011;9293;49.524;10.964;2022-09-09T03:39:38;3.30;;;1.50;;
18334;SDS011;9293;49.524;10.964;2022-09-09T03:42:08;3.60;;;1.70;;
18334;SDS011;9293;49.524;10.964;2022-09-09T03:44:36;4.68;;;1.88;;
18334;SDS011;9293;49.524;10.964;2022-09-09T03:47:04;2.97;;;1.60;;
18334;SDS011;9293;49.524;10.964;2022-09-09T03:49:34;4.63;;;1.73;;
18334;SDS011;9293;49.524;10.964;2022-09-09T03:52:01;3.03;;;1.60;;
18334;SDS011;9293;49.524;10.964;2022-09-09T03:54:30;2.75;;;1.67;;
18334;SDS011;9293;49.524;10.964;2022-09-09T03:56:58;3.75;;;1.73;;
18334;SDS011;9293;49.524;10.964;2022-09-09T03:59:26;6.25;;;1.92;;
18334;SDS011;9293;49.524;10.964;2022-09-09T04:01:55;4.55;;;1.50;;
18334;SDS011;9293;49.524;10.964;2022-09-09T04:04:24;4.88;;;1.60;;
18334;SDS011;9293;49.524;10.964;2022-09-09T04:06:54;3.40;;;1.45;;
18334;SDS011;9293;49.524;10.964;2022-09-09T04:09:22;3.33;;;1.60;;
18334;SDS011;9293;49.524;10.964;2022-09-09T04:11:51;4.15;;;1.80;;
18334;SDS011;9293;49.524;10.964;2022-09-09T04:14:20;3.53;;;1.52;;
18334;SDS011;9293;49.524;10.964;2022-09-09T04:16:49;4.05;;;2.10;;
18334;SDS011;9293;49.524;10.964;2022-09-09T04:19:17;4.38;;;1.98;;
18334;SDS011;9293;49.524;10.964;2022-09-09T04:21:45;3.40;;;1.35;;
18334;SDS011;9293;49.524;10.964;2022-09-09T04:24:13;3.78;;;1.88;;
18334;SDS011;9293;49.524;10.964;2022-09-09T04:26:43;2.80;;;1.38;;
18334;SDS011;9293;49.524;10.964;2022-09-09T04:29:12;6.50;;;1.80;;
18334;SDS011;9293;49.524;10.964;2022-09-09T04:31:40;2.78;;;1.90;;
18334;SDS011;9293;49.524;10.964;2022-09-09T04:34:09;2.85;;;1.50;;
18334;SDS011;9293;49.524;10.964;2022-09-09T04:36:38;5.50;;;1.60;;
18334;SDS011;9293;49.524;10.964;2022-09-09T04:39:08;2.60;;;1.47;;
18334;SDS011;9293;49.524;10.964;2022-09-09T04:41:38;7.93;;;1.80;;
18334;SDS011;9293;49.524;10.964;2022-09-09T04:44:08;5.03;;;1.60;;
18334;SDS011;9293;49.524;10.964;2022-09-09T04:46:38;5.22;;;2.25;;
18334;SDS011;9293;49.524;10.964;2022-09-09T04:49:13;5.32;;;2.03;;
18334;SDS011;9293;49.524;10.964;2022-09-09T04:51:42;4.70;;;1.73;;
18334;SDS011;9293;49.524;10.964;2022-09-09T04:54:11;5.20;;;1.83;;
18334;SDS011;9293;49.524;10.964;2022-09-09T04:56:42;3.63;;;1.70;;
18334;SDS011;9293;49.524;10.964;2022-09-09T04:59:11;4.45;;;1.80;;
18334;SDS011;9293;49.524;10.964;2022-09-09T05:01:43;4.80;;;1.95;;
18334;SDS011;9293;49.524;10.964;2022-09-09T05:04:12;4.55;;;1.90;;
18334;SDS011;9293;49.524;10.964;2022-09-09T05:06:40;2.97;;;1.60;;
18334;SDS011;9293;49.524;10.964;2022-09-09T05:09:11;3.17;;;1.70;;
18334;SDS011;9293;49.524;10.964;2022-09-09T05:11:39;3.83;;;1.73;;
18334;SDS011;9293;49.524;10.964;2022-09-09T05:14:17;4.47;;;2.15;;
18334;SDS011;9293;49.524;10.964;2022-09-09T05:16:45;5.70;;;1.80;;
18334;SDS011;9293;49.524;10.964;2022-09-09T05:19:14;5.28;;;1.67;;
18334;SDS011;9293;49.524;10.964;2022-09-09T05:24:17;2.95;;;1.90;;
18334;SDS011;9293;49.524;10.964;2022-09-09T05:26:47;4.32;;;1.98;;
18334;SDS011;9293;49.524;10.964;2022-09-09T05:29:16;3.90;;;2.00;;
18334;SDS011;9293;49.524;10.964;2022-09-09T05:31:46;3.33;;;1.58;;
18334;SDS011;9293;49.524;10.964;2022-09-09T05:34:18;5.28;;;1.50;;
18334;SDS011;9293;49.524;10.964;2022-09-09T05:36:49;5.18;;;1.75;;
18334;SDS011;9293;49.524;10.964;2022-09-09T05:39:19;4.70;;;1.85;;
18334;SDS011;9293;49.524;10.964;2022-09-09T05:41:50;4.30;;;1.52;;
18334;SDS011;9293;49.524;10.964;2022-09-09T05:46:48;3.95;;;2.30;;
18334;SDS011;9293;49.524;10.964;2022-09-09T05:49:17;5.05;;;2.15;;
18334;SDS011;9293;49.524;10.964;2022-09-09T05:51:46;3.15;;;1.60;;
18334;SDS011;9293;49.524;10.964;2022-09-09T05:54:16;5.53;;;2.08;;
18334;SDS011;9293;49.524;10.964;2022-09-09T05:59:18;5.25;;;1.60;;
18334;SDS011;9293;49.524;10.964;2022-09-09T06:01:49;5.68;;;2.10;;
18334;SDS011;9293;49.524;10.964;2022-09-09T06:04:28;3.00;;;1.55;;
18334;SDS011;9293;49.524;10.964;2022-09-09T06:06:59;6.03;;;2.10;;
18334;SDS011;9293;49.524;10.964;2022-09-09T06:09:28;4.82;;;1.95;;
18334;SDS011;9293;49.524;10.964;2022-09-09T06:11:57;3.53;;;1.67;;
18334;SDS011;9293;49.524;10.964;2022-09-09T06:14:25;4.93;;;2.00;;
18334;SDS011;9293;49.524;10.964;2022-09-09T06:16:57;3.58;;;1.92;;
18334;SDS011;9293;49.524;10.964;2022-09-09T06:19:28;3.20;;;1.55;;
18334;SDS011;9293;49.524;10.964;2022-09-09T06:22:00;3.72;;;1.80;;
18334;SDS011;9293;49.524;10.964;2022-09-09T06:24:32;5.10;;;1.75;;
18334;SDS011;9293;49.524;10.964;2022-09-09T06:27:01;5.57;;;1.70;;
18334;SDS011;9293;49.524;10.964;2022-09-09T06:29:33;3.35;;;1.52;;
18334;SDS011;9293;49.524;10.964;2022-09-09T06:32:02;2.92;;;1.48;;
18334;SDS011;9293;49.524;10.964;2022-09-09T06:34:33;3.08;;;1.48;;
18334;SDS011;9293;49.524;10.964;2022-09-09T06:37:03;5.87;;;1.67;;
18334;SDS011;9293;49.524;10.964;2022-09-09T06:39:42;2.78;;;1.80;;
18334;SDS011;9293;49.524;10.964;2022-09-09T06:42:10;7.97;;;1.90;;
18334;SDS011;9293;49.524;10.964;2022-09-09T06:44:58;6.15;;;1.52;;
18334;SDS011;9293;49.524;10.964;2022-09-09T06:47:38;3.63;;;1.88;;
18334;SDS011;9293;49.524;10.964;2022-09-09T06:50:07;3.63;;;1.70;;
18334;SDS011;9293;49.524;10.964;2022-09-09T06:52:37;5.50;;;1.77;;
18334;SDS011;9293;49.524;10.964;2022-09-09T06:55:08;4.32;;;1.35;;
18334;SDS011;9293;49.524;10.964;2022-09-09T06:57:37;4.82;;;1.92;;
18334;SDS011;9293;49.524;10.964;2022-09-09T07:00:13;3.45;;;1.40;;
18334;SDS011;9293;49.524;10.964;2022-09-09T07:02:45;4.72;;;1.55;;
18334;SDS011;9293;49.524;10.964;2022-09-09T07:05:13;3.15;;;1.65;;
18334;SDS011;9293;49.524;10.964;2022-09-09T07:07:44;4.85;;;1.83;;
18334;SDS011;9293;49.524;10.964;2022-09-09T07:10:14;3.42;;;1.30;;
18334;SDS011;9293;49.524;10.964;2022-09-09T07:12:43;3.03;;;1.48;;
18334;SDS011;9293;49.524;10.964;2022-09-09T07:15:12;5.57;;;1.65;;
18334;SDS011;9293;49.524;10.964;2022-09-09T07:17:44;5.57;;;1.50;;
18334;SDS011;9293;49.524;10.964;2022-09-09T07:20:13;3.55;;;0.90;;
18334;SDS011;9293;49.524;10.964;2022-09-09T07:22:43;4.20;;;1.65;;
18334;SDS011;9293;49.524;10.964;2022-09-09T07:25:11;4.25;;;1.10;;
18334;SDS011;9293;49.524;10.964;2022-09-09T07:27:39;7.13;;;1.38;;
18334;SDS011;9293;49.524;10.964;2022-09-09T07:30:08;5.78;;;1.25;;
18334;SDS011;9293;49.524;10.964;2022-09-09T07:32:43;4.72;;;0.98;;
18334;SDS011;9293;49.524;10.964;2022-09-09T07:35:11;5.25;;;1.20;;
18334;SDS011;9293;49.524;10.964;2022-09-09T07:37:40;4.82;;;1.20;;
18334;SDS011;9293;49.524;10.964;2022-09-09T07:40:13;2.22;;;1.00;;
18334;SDS011;9293;49.524;10.964;2022-09-09T07:42:41;2.72;;;0.93;;
18334;SDS011;9293;49.524;10.964;2022-09-09T07:45:10;4.03;;;1.17;;
18334;SDS011;9293;49.524;10.964;2022-09-09T07:47:38;4.30;;;1.30;;
18334;SDS011;9293;49.524;10.964;2022-09-09T07:50:06;3.40;;;1.25;;
18334;SDS011;9293;49.524;10.964;2022-09-09T07:52:37;3.45;;;1.23;;
18334;SDS011;9293;49.524;10.964;2022-09-09T07:55:06;3.55;;;1.23;;
18334;SDS011;9293;49.524;10.964;2022-09-09T07:57:34;5.35;;;1.00;;
18334;SDS011;9293;49.524;10.964;2022-09-09T08:00:03;5.15;;;1.17;;
18334;SDS011;9293;49.524;10.964;2022-09-09T08:02:37;6.32;;;1.42;;
18334;SDS011;9293;49.524;10.964;2022-09-09T08:05:09;4.72;;;1.02;;
18334;SDS011;9293;49.524;10.964;2022-09-09T08:10:11;3.42;;;1.00;;
18334;SDS011;9293;49.524;10.964;2022-09-09T08:12:43;3.75;;;1.08;;
18334;SDS011;9293;49.524;10.964;2022-09-09T08:15:32;5.05;;;1.08;;
18334;SDS011;9293;49.524;10.964;2022-09-09T08:18:02;4.28;;;1.10;;
18334;SDS011;9293;49.524;10.964;2022-09-09T08:20:32;3.00;;;1.10;;
18334;SDS011;9293;49.524;10.964;2022-09-09T08:23:02;3.95;;;1.00;;
18334;SDS011;9293;49.524;10.964;2022-09-09T08:25:32;2.05;;;0.85;;
18334;SDS011;9293;49.524;10.964;2022-09-09T08:28:02;3.15;;;1.00;;
18334;SDS011;9293;49.524;10.964;2022-09-09T08:30:31;4.20;;;0.70;;
18334;SDS011;9293;49.524;10.964;2022-09-09T08:32:59;2.55;;;0.85;;
18334;SDS011;9293;49.524;10.964;2022-09-09T08:35:27;3.05;;;0.93;;
18334;SDS011;9293;49.524;10.964;2022-09-09T08:38:00;3.22;;;0.98;;
18334;SDS011;9293;49.524;10.964;2022-09-09T08:40:35;4.45;;;0.98;;
18334;SDS011;9293;49.524;10.964;2022-09-09T08:43:19;3.60;;;0.80;;
18334;SDS011;9293;49.524;10.964;2022-09-09T08:45:50;1.88;;;0.68;;
18334;SDS011;9293;49.524;10.964;2022-09-09T08:51:11;3.55;;;1.08;;
18334;SDS011;9293;49.524;10.964;2022-09-09T08:53:43;5.35;;;1.00;;
18334;SDS011;9293;49.524;10.964;2022-09-09T08:56:18;2.15;;;0.90;;
18334;SDS011;9293;49.524;10.964;2022-09-09T08:58:55;3.92;;;0.93;;
18334;SDS011;9293;49.524;10.964;2022-09-09T09:04:19;1.55;;;0.70;;
18334;SDS011;9293;49.524;10.964;2022-09-09T09:13:20;4.22;;;0.70;;
18334;SDS011;9293;49.524;10.964;2022-09-09T09:16:00;3.03;;;0.85;;
18334;SDS011;9293;49.524;10.964;2022-09-09T09:18:45;3.63;;;0.98;;
18334;SDS011;9293;49.524;10.964;2022-09-09T09:21:16;4.00;;;1.00;;
18334;SDS011;9293;49.524;10.964;2022-09-09T09:23:51;3.25;;;0.80;;
18334;SDS011;9293;49.524;10.964;2022-09-09T09:26:31;2.90;;;0.60;;
18334;SDS011;9293;49.524;10.964;2022-09-09T09:29:10;3.88;;;0.75;;
18334;SDS011;9293;49.524;10.964;2022-09-09T09:31:51;5.18;;;0.82;;
18334;SDS011;9293;49.524;10.964;2022-09-09T09:34:24;2.30;;;0.63;;
18334;SDS011;9293;49.524;10.964;2022-09-09T09:36:58;3.95;;;0.80;;
18334;SDS011;9293;49.524;10.964;2022-09-09T09:39:35;2.67;;;0.70;;
18334;SDS011;9293;49.524;10.964;2022-09-09T09:42:26;2.22;;;0.70;;
18334;SDS011;9293;49.524;10.964;2022-09-09T09:44:56;2.83;;;0.77;;
18334;SDS011;9293;49.524;10.964;2022-09-09T09:47:57;2.70;;;0.50;;
18334;SDS011;9293;49.524;10.964;2022-09-09T09:50:35;6.85;;;1.17;;
18334;SDS011;9293;49.524;10.964;2022-09-09T09:55:56;3.60;;;0.63;;
18334;SDS011;9293;49.524;10.964;2022-09-09T09:58:29;2.25;;;0.60;;
18334;SDS011;9293;49.524;10.964;2022-09-09T10:01:01;4.75;;;0.70;;
18334;SDS011;9293;49.524;10.964;2022-09-09T10:03:31;2.78;;;0.70;;
18334;SDS011;9293;49.524;10.964;2022-09-09T10:06:05;3.28;;;0.60;;
18334;SDS011;9293;49.524;10.964;2022-09-09T10:08:34;2.60;;;0.70;;
18334;SDS011;9293;49.524;10.964;2022-09-09T10:16:40;3.05;;;0.60;;
18334;SDS011;9293;49.524;10.964;2022-09-09T10:19:19;3.88;;;0.60;;
18334;SDS011;9293;49.524;10.964;2022-09-09T10:21:57;3.28;;;0.95;;
18334;SDS011;9293;49.524;10.964;2022-09-09T10:27:15;2.30;;;0.70;;
18334;SDS011;9293;49.524;10.964;2022-09-09T10:32:53;3.60;;;1.05;;
18334;SDS011;9293;49.524;10.964;2022-09-09T10:35:33;3.55;;;0.60;;
18334;SDS011;9293;49.524;10.964;2022-09-09T10:38:11;3.30;;;0.57;;
18334;SDS011;9293;49.524;10.964;2022-09-09T10:51:57;2.38;;;0.57;;
18334;SDS011;9293;49.524;10.964;2022-09-09T10:55:02;4.55;;;0.80;;
18334;SDS011;9293;49.524;10.964;2022-09-09T10:57:44;4.07;;;0.80;;
18334;SDS011;9293;49.524;10.964;2022-09-09T11:00:24;2.97;;;0.60;;
18334;SDS011;9293;49.524;10.964;2022-09-09T11:03:20;2.78;;;0.70;;
18334;SDS011;9293;49.524;10.964;2022-09-09T11:06:04;3.55;;;0.68;;
18334;SDS011;9293;49.524;10.964;2022-09-09T11:08:37;3.17;;;0.90;;
18334;SDS011;9293;49.524;10.964;2022-09-09T11:11:13;3.95;;;0.77;;
18334;SDS011;9293;49.524;10.964;2022-09-09T11:22:04;1.88;;;0.82;;
18334;SDS011;9293;49.524;10.964;2022-09-09T11:30:49;5.38;;;0.77;;
18334;SDS011;9293;49.524;10.964;2022-09-09T11:39:35;2.72;;;0.80;;
18334;SDS011;9293;49.524;10.964;2022-09-09T11:44:41;1.60;;;0.50;;
18334;SDS011;9293;49.524;10.964;2022-09-09T11:47:28;3.45;;;0.50;;
18334;SDS011;9293;49.524;10.964;2022-09-09T11:50:07;3.20;;;0.70;;
18334;SDS011;9293;49.524;10.964;2022-09-09T11:55:43;4.10;;;0.73;;
18334;SDS011;9293;49.524;10.964;2022-09-09T12:00:43;3.92;;;0.90;;
18334;SDS011;9293;49.524;10.964;2022-09-09T12:08:48;5.22;;;1.00;;
18334;SDS011;9293;49.524;10.964;2022-09-09T12:11:30;3.22;;;0.65;;
18334;SDS011;9293;49.524;10.964;2022-09-09T12:13:59;2.55;;;0.80;;
18334;SDS011;9293;49.524;10.964;2022-09-09T12:16:34;1.88;;;0.50;;
18334;SDS011;9293;49.524;10.964;2022-09-09T12:28:01;3.72;;;0.65;;
18334;SDS011;9293;49.524;10.964;2022-09-09T12:30:54;4.63;;;0.73;;
18334;SDS011;9293;49.524;10.964;2022-09-09T12:33:45;4.30;;;0.80;;
18334;SDS011;9293;49.524;10.964;2022-09-09T12:36:15;1.88;;;0.50;;
18334;SDS011;9293;49.524;10.964;2022-09-09T12:38:55;4.35;;;1.05;;
18334;SDS011;9293;49.524;10.964;2022-09-09T12:41:37;1.85;;;0.60;;
18334;SDS011;9293;49.524;10.964;2022-09-09T12:44:09;1.90;;;0.50;;
18334;SDS011;9293;49.524;10.964;2022-09-09T12:46:41;3.75;;;0.85;;
18334;SDS011;9293;49.524;10.964;2022-09-09T12:52:06;16.80;;;2.53;;
18334;SDS011;9293;49.524;10.964;2022-09-09T12:54:57;9.23;;;1.08;;
18334;SDS011;9293;49.524;10.964;2022-09-09T12:57:30;9.48;;;1.35;;
18334;SDS011;9293;49.524;10.964;2022-09-09T13:00:14;9.73;;;1.73;;
18334;SDS011;9293;49.524;10.964;2022-09-09T13:02:52;8.23;;;1.60;;
18334;SDS011;9293;49.524;10.964;2022-09-09T13:05:26;9.50;;;1.40;;
18334;SDS011;9293;49.524;10.964;2022-09-09T13:08:00;8.50;;;1.38;;
18334;SDS011;9293;49.524;10.964;2022-09-09T13:10:40;8.32;;;1.52;;
18334;SDS011;9293;49.524;10.964;2022-09-09T13:13:23;5.15;;;1.10;;
18334;SDS011;9293;49.524;10.964;2022-09-09T13:15:57;6.35;;;1.17;;
18334;SDS011;9293;49.524;10.964;2022-09-09T13:18:28;5.07;;;1.10;;
18334;SDS011;9293;49.524;10.964;2022-09-09T13:21:08;2.77;;;0.90;;
18334;SDS011;9293;49.524;10.964;2022-09-09T13:23:39;4.43;;;1.13;;
18334;SDS011;9293;49.524;10.964;2022-09-09T13:28:53;4.03;;;0.90;;
18334;SDS011;9293;49.524;10.964;2022-09-09T13:31:32;4.32;;;0.85;;
18334;SDS011;9293;49.524;10.964;2022-09-09T13:34:13;4.65;;;0.80;;
18334;SDS011;9293;49.524;10.964;2022-09-09T13:37:03;5.20;;;0.60;;
18334;SDS011;9293;49.524;10.964;2022-09-09T13:39:38;3.42;;;0.80;;
18334;SDS011;9293;49.524;10.964;2022-09-09T13:42:19;2.83;;;1.00;;
18334;SDS011;9293;49.524;10.964;2022-09-09T13:44:52;7.75;;;0.68;;
18334;SDS011;9293;49.524;10.964;2022-09-09T13:47:27;3.35;;;0.70;;
18334;SDS011;9293;49.524;10.964;2022-09-09T13:49:58;5.60;;;0.90;;
18334;SDS011;9293;49.524;10.964;2022-09-09T13:52:54;3.50;;;0.70;;
18334;SDS011;9293;49.524;10.964;2022-09-09T13:55:28;3.80;;;0.88;;
18334;SDS011;9293;49.524;10.964;2022-09-09T13:58:03;3.60;;;0.60;;
18334;SDS011;9293;49.524;10.964;2022-09-09T14:00:34;3.00;;;1.00;;
18334;SDS011;9293;49.524;10.964;2022-09-09T14:03:02;4.78;;;0.80;;
18334;SDS011;9293;49.524;10.964;2022-09-09T14:05:31;3.88;;;0.90;;
18334;SDS011;9293;49.524;10.964;2022-09-09T14:08:02;5.20;;;1.00;;
18334;SDS011;9293;49.524;10.964;2022-09-09T14:10:32;7.45;;;1.13;;
18334;SDS011;9293;49.524;10.964;2022-09-09T14:15:31;4.55;;;0.77;;
18334;SDS011;9293;49.524;10.964;2022-09-09T14:17:58;5.10;;;2.00;;
18334;SDS011;9293;49.524;10.964;2022-09-09T14:20:26;4.75;;;1.38;;
18334;SDS011;9293;49.524;10.964;2022-09-09T14:22:54;4.32;;;1.20;;
18334;SDS011;9293;49.524;10.964;2022-09-09T14:25:28;5.30;;;1.30;;
18334;SDS011;9293;49.524;10.964;2022-09-09T14:27:56;4.35;;;0.98;;
18334;SDS011;9293;49.524;10.964;2022-09-09T14:30:24;5.15;;;1.00;;
18334;SDS011;9293;49.524;10.964;2022-09-09T14:32:52;5.57;;;0.93;;
18334;SDS011;9293;49.524;10.964;2022-09-09T14:35:20;6.68;;;0.80;;
18334;SDS011;9293;49.524;10.964;2022-09-09T14:37:49;4.32;;;1.20;;
18334;SDS011;9293;49.524;10.964;2022-09-09T14:40:17;5.18;;;1.20;;
18334;SDS011;9293;49.524;10.964;2022-09-09T14:42:45;5.32;;;0.90;;
18334;SDS011;9293;49.524;10.964;2022-09-09T14:45:13;3.38;;;0.82;;
18334;SDS011;9293;49.524;10.964;2022-09-09T14:47:41;3.70;;;1.10;;
18334;SDS011;9293;49.524;10.964;2022-09-09T14:50:08;3.42;;;0.82;;
18334;SDS011;9293;49.524;10.964;2022-09-09T14:52:37;7.93;;;1.95;;
18334;SDS011;9293;49.524;10.964;2022-09-09T14:55:06;9.00;;;3.05;;
18334;SDS011;9293;49.524;10.964;2022-09-09T14:57:34;6.05;;;1.45;;
18334;SDS011;9293;49.524;10.964;2022-09-09T15:00:03;7.70;;;1.85;;
18334;SDS011;9293;49.524;10.964;2022-09-09T15:02:34;6.97;;;2.22;;
18334;SDS011;9293;49.524;10.964;2022-09-09T15:05:03;4.60;;;0.88;;
18334;SDS011;9293;49.524;10.964;2022-09-09T15:07:31;6.75;;;1.55;;
18334;SDS011;9293;49.524;10.964;2022-09-09T15:09:59;4.90;;;1.40;;
18334;SDS011;9293;49.524;10.964;2022-09-09T15:12:27;3.60;;;0.80;;
18334;SDS011;9293;49.524;10.964;2022-09-09T15:14:55;3.10;;;0.90;;
18334;SDS011;9293;49.524;10.964;2022-09-09T15:17:23;4.13;;;1.17;;
18334;SDS011;9293;49.524;10.964;2022-09-09T15:19:53;6.00;;;1.67;;
18334;SDS011;9293;49.524;10.964;2022-09-09T15:22:21;2.47;;;0.90;;
18334;SDS011;9293;49.524;10.964;2022-09-09T15:24:51;3.95;;;0.90;;
18334;SDS011;9293;49.524;10.964;2022-09-09T15:27:19;2.88;;;0.93;;
18334;SDS011;9293;49.524;10.964;2022-09-09T15:29:48;2.92;;;0.73;;
18334;SDS011;9293;49.524;10.964;2022-09-09T15:32:17;5.30;;;1.17;;
18334;SDS011;9293;49.524;10.964;2022-09-09T15:34:49;2.38;;;1.10;;
18334;SDS011;9293;49.524;10.964;2022-09-09T15:37:18;5.82;;;0.82;;
18334;SDS011;9293;49.524;10.964;2022-09-09T15:39:46;1.75;;;0.70;;
18334;SDS011;9293;49.524;10.964;2022-09-09T15:42:15;3.83;;;1.00;;
18334;SDS011;9293;49.524;10.964;2022-09-09T15:44:43;5.45;;;1.00;;
18334;SDS011;9293;49.524;10.964;2022-09-09T15:47:11;5.00;;;0.75;;
18334;SDS011;9293;49.524;10.964;2022-09-09T15:49:40;2.65;;;0.45;;
18334;SDS011;9293;49.524;10.964;2022-09-09T15:52:09;2.45;;;0.80;;
18334;SDS011;9293;49.524;10.964;2022-09-09T15:54:38;1.83;;;0.47;;
18334;SDS011;9293;49.524;10.964;2022-09-09T15:57:07;1.58;;;0.30;;
18334;SDS011;9293;49.524;10.964;2022-09-09T15:59:39;2.13;;;0.60;;
18334;SDS011;9293;49.524;10.964;2022-09-09T16:02:08;1.33;;;0.40;;
18334;SDS011;9293;49.524;10.964;2022-09-09T16:04:37;3.17;;;0.50;;
18334;SDS011;9293;49.524;10.964;2022-09-09T16:07:05;1.35;;;0.43;;
18334;SDS011;9293;49.524;10.964;2022-09-09T16:09:33;1.45;;;0.40;;
18334;SDS011;9293;49.524;10.964;2022-09-09T16:12:02;4.25;;;0.70;;
18334;SDS011;9293;49.524;10.964;2022-09-09T16:14:33;1.73;;;0.40;;
18334;SDS011;9293;49.524;10.964;2022-09-09T16:17:03;0.65;;;0.20;;
18334;SDS011;9293;49.524;10.964;2022-09-09T16:19:32;1.30;;;0.40;;
18334;SDS011;9293;49.524;10.964;2022-09-09T16:22:01;1.23;;;0.40;;
18334;SDS011;9293;49.524;10.964;2022-09-09T16:24:31;1.35;;;0.63;;
18334;SDS011;9293;49.524;10.964;2022-09-09T16:26:59;2.75;;;1.02;;
18334;SDS011;9293;49.524;10.964;2022-09-09T16:29:27;4.40;;;1.35;;
18334;SDS011;9293;49.524;10.964;2022-09-09T16:31:55;5.18;;;1.65;;
18334;SDS011;9293;49.524;10.964;2022-09-09T16:34:29;5.10;;;1.20;;
18334;SDS011;9293;49.524;10.964;2022-09-09T16:36:57;5.35;;;1.80;;
18334;SDS011;9293;49.524;10.964;2022-09-09T16:39:25;5.30;;;1.67;;
18334;SDS011;9293;49.524;10.964;2022-09-09T16:41:53;3.58;;;0.77;;
18334;SDS011;9293;49.524;10.964;2022-09-09T16:44:21;4.28;;;1.33;;
18334;SDS011;9293;49.524;10.964;2022-09-09T16:46:49;2.28;;;0.52;;
18334;SDS011;9293;49.524;10.964;2022-09-09T16:49:28;2.05;;;0.52;;
18334;SDS011;9293;49.524;10.964;2022-09-09T16:51:59;3.72;;;0.50;;
18334;SDS011;9293;49.524;10.964;2022-09-09T16:56:56;2.28;;;0.60;;
18334;SDS011;9293;49.524;10.964;2022-09-09T16:59:24;1.25;;;0.70;;
18334;SDS011;9293;49.524;10.964;2022-09-09T17:01:53;1.75;;;0.30;;
18334;SDS011;9293;49.524;10.964;2022-09-09T17:04:23;2.15;;;0.40;;
18334;SDS011;9293;49.524;10.964;2022-09-09T17:06:54;2.08;;;0.40;;
18334;SDS011;9293;49.524;10.964;2022-09-09T17:09:23;2.08;;;0.40;;
18334;SDS011;9293;49.524;10.964;2022-09-09T17:11:56;0.57;;;0.30;;
18334;SDS011;9293;49.524;10.964;2022-09-09T17:14:24;2.75;;;0.40;;
18334;SDS011;9293;49.524;10.964;2022-09-09T17:16:52;1.25;;;0.30;;
18334;SDS011;9293;49.524;10.964;2022-09-09T17:19:20;4.35;;;0.45;;
18334;SDS011;9293;49.524;10.964;2022-09-09T17:21:48;2.15;;;0.47;;
18334;SDS011;9293;49.524;10.964;2022-09-09T17:24:36;2.55;;;0.95;;
18334;SDS011;9293;49.524;10.964;2022-09-09T17:27:05;1.92;;;0.70;;
18334;SDS011;9293;49.524;10.964;2022-09-09T17:29:34;2.42;;;0.60;;
18334;SDS011;9293;49.524;10.964;2022-09-09T17:32:03;1.75;;;0.60;;
18334;SDS011;9293;49.524;10.964;2022-09-09T17:34:33;3.00;;;0.70;;
18334;SDS011;9293;49.524;10.964;2022-09-09T17:37:01;1.90;;;0.60;;
18334;SDS011;9293;49.524;10.964;2022-09-09T17:39:31;4.60;;;0.50;;
18334;SDS011;9293;49.524;10.964;2022-09-09T17:42:00;2.70;;;0.40;;